GFRAS EGPH-EGEO

Flight info

Callsign GFRAS
Flight time 0h 30m
Altitude 3500
Route VFR POLEMONT EGEO
Aircraft C210/L-VGD/A

Departure

Time 2026-04-24 15:30
Airport Edinburgh Airport (EGPH)

Arrival

Time 2026-04-24 16:00
Airport Oban Airport (EGEO)
Time Latitude Longitude Altitude Speed Heading
2026-04-24 15:00 55.94741 -3.34490 138 ft 0 kts 154°
2026-04-24 15:18 55.94736 -3.34488 138 ft 1 kts 182°
2026-04-24 15:18 55.94732 -3.34512 138 ft 3 kts 317°
2026-04-24 15:19 55.94761 -3.34528 138 ft 4 kts 345°
2026-04-24 15:19 55.94792 -3.34554 138 ft 5 kts 293°
2026-04-24 15:19 55.94781 -3.34627 138 ft 6 kts 247°
2026-04-24 15:19 55.94762 -3.34714 138 ft 8 kts 265°
2026-04-24 15:20 55.94783 -3.34809 138 ft 8 kts 299°
2026-04-24 15:20 55.94813 -3.34906 138 ft 9 kts 301°
2026-04-24 15:20 55.94844 -3.35008 138 ft 9 kts 298°
2026-04-24 15:20 55.94876 -3.35111 138 ft 9 kts 299°
2026-04-24 15:21 55.94908 -3.35217 138 ft 9 kts 299°
2026-04-24 15:21 55.94941 -3.35324 138 ft 9 kts 298°
2026-04-24 15:21 55.94973 -3.35431 138 ft 9 kts 299°
2026-04-24 15:21 55.95007 -3.35539 138 ft 9 kts 300°
2026-04-24 15:22 55.95041 -3.35646 138 ft 9 kts 299°
2026-04-24 15:22 55.95073 -3.35754 138 ft 9 kts 300°
2026-04-24 15:22 55.95114 -3.35854 138 ft 9 kts 298°
2026-04-24 15:23 55.95210 -3.36018 138 ft 9 kts 289°
2026-04-24 15:23 55.95150 -3.36231 138 ft 10 kts 240°
2026-04-24 15:23 55.95112 -3.36343 138 ft 10 kts 238°
2026-04-24 15:24 55.94994 -3.36693 138 ft 11 kts 239°
2026-04-24 15:25 55.94925 -3.36894 138 ft 11 kts 239°
2026-04-24 15:25 55.94827 -3.37182 138 ft 11 kts 238°
2026-04-24 15:26 55.94701 -3.37555 138 ft 11 kts 240°
2026-04-24 15:27 55.94586 -3.37909 138 ft 8 kts 266°
2026-04-24 15:27 55.94625 -3.37989 138 ft 0 kts 330°
2026-04-24 15:28 55.95141 -3.36833 172 ft 80 kts 60°
2026-04-24 15:29 55.95646 -3.35153 474 ft 82 kts 59°
2026-04-24 15:30 55.97076 -3.34594 1179 ft 99 kts 306°
2026-04-24 15:31 55.98423 -3.39388 1855 ft 121 kts 308°
2026-04-24 15:32 55.99115 -3.47263 1721 ft 167 kts 269°
2026-04-24 15:33 55.98655 -3.55491 1802 ft 167 kts 269°
2026-04-24 15:33 55.98745 -3.61726 1794 ft 166 kts 284°
2026-04-24 15:34 55.99296 -3.65705 1792 ft 165 kts 293°
2026-04-24 15:35 56.00790 -3.71176 1808 ft 164 kts 303°
2026-04-24 15:35 56.01970 -3.74639 1981 ft 162 kts 306°
2026-04-24 15:35 56.02578 -3.76344 2035 ft 163 kts 306°
2026-04-24 15:36 56.03187 -3.78034 2115 ft 162 kts 306°
2026-04-24 15:36 56.04438 -3.81393 2244 ft 162 kts 308°
2026-04-24 15:36 56.05103 -3.83043 2303 ft 162 kts 309°
2026-04-24 15:37 56.05761 -3.84667 2375 ft 162 kts 309°
2026-04-24 15:37 56.06427 -3.86292 2452 ft 161 kts 309°
2026-04-24 15:37 56.06872 -3.87354 2502 ft 160 kts 309°
2026-04-24 15:37 56.07754 -3.89496 2583 ft 160 kts 308°
2026-04-24 15:38 56.08409 -3.91096 2667 ft 158 kts 308°
2026-04-24 15:38 56.09060 -3.92708 2730 ft 158 kts 306°
2026-04-24 15:38 56.09665 -3.94376 2775 ft 159 kts 303°
2026-04-24 15:38 56.10212 -3.96073 2832 ft 159 kts 300°
2026-04-24 15:39 56.10713 -3.97847 2905 ft 158 kts 296°
2026-04-24 15:39 56.11188 -3.99622 2956 ft 158 kts 295°
2026-04-24 15:39 56.11631 -4.01446 2993 ft 159 kts 292°
2026-04-24 15:39 56.12062 -4.03266 3043 ft 159 kts 292°
2026-04-24 15:40 56.12501 -4.05106 3073 ft 161 kts 292°
2026-04-24 15:40 56.12954 -4.06959 3099 ft 161 kts 294°
2026-04-24 15:40 56.13411 -4.08789 3178 ft 159 kts 294°
2026-04-24 15:40 56.13878 -4.10590 3198 ft 161 kts 294°
2026-04-24 15:41 56.14373 -4.12378 3292 ft 159 kts 295°
2026-04-24 15:41 56.14877 -4.14108 3408 ft 157 kts 295°
2026-04-24 15:41 56.15391 -4.15865 3453 ft 159 kts 297°
2026-04-24 15:41 56.15863 -4.17665 3452 ft 158 kts 293°
2026-04-24 15:42 56.16316 -4.19448 3448 ft 158 kts 295°
2026-04-24 15:42 56.16791 -4.21249 3414 ft 160 kts 294°
2026-04-24 15:42 56.17291 -4.23020 3419 ft 159 kts 295°
2026-04-24 15:42 56.17796 -4.24803 3394 ft 160 kts 295°
2026-04-24 15:43 56.18257 -4.26573 3473 ft 154 kts 292°
2026-04-24 15:43 56.18709 -4.28341 3468 ft 156 kts 294°
2026-04-24 15:43 56.19190 -4.30105 3468 ft 157 kts 297°
2026-04-24 15:43 56.19704 -4.31801 3490 ft 156 kts 298°
2026-04-24 15:44 56.20246 -4.33517 3474 ft 157 kts 298°
2026-04-24 15:44 56.20789 -4.35241 3474 ft 158 kts 297°
2026-04-24 15:44 56.21307 -4.36938 3532 ft 154 kts 296°
2026-04-24 15:44 56.21768 -4.38711 3507 ft 157 kts 292°
2026-04-24 15:45 56.22245 -4.40507 3480 ft 159 kts 292°
2026-04-24 15:45 56.22684 -4.42315 3517 ft 157 kts 291°
2026-04-24 15:45 56.23102 -4.44116 3533 ft 157 kts 291°
2026-04-24 15:45 56.23535 -4.45915 3565 ft 155 kts 294°
2026-04-24 15:46 56.23959 -4.47706 3583 ft 155 kts 292°
2026-04-24 15:46 56.24405 -4.49502 3554 ft 157 kts 293°
2026-04-24 15:46 56.24870 -4.51267 3575 ft 156 kts 295°
2026-04-24 15:46 56.25354 -4.53005 3606 ft 155 kts 297°
2026-04-24 15:47 56.25845 -4.54759 3588 ft 157 kts 297°
2026-04-24 15:47 56.26363 -4.56486 3553 ft 159 kts 300°
2026-04-24 15:47 56.26922 -4.58238 3537 ft 159 kts 300°
2026-04-24 15:47 56.27466 -4.59966 3506 ft 161 kts 298°
2026-04-24 15:48 56.28024 -4.61729 3475 ft 162 kts 298°
2026-04-24 15:48 56.28562 -4.63487 3510 ft 158 kts 297°
2026-04-24 15:48 56.29062 -4.65232 3531 ft 157 kts 295°
2026-04-24 15:48 56.29556 -4.66997 3527 ft 157 kts 295°
2026-04-24 15:49 56.30071 -4.68759 3547 ft 157 kts 297°
2026-04-24 15:49 56.30571 -4.70496 3540 ft 157 kts 296°
2026-04-24 15:49 56.31056 -4.72263 3522 ft 158 kts 294°
2026-04-24 15:49 56.31540 -4.74053 3511 ft 159 kts 295°
2026-04-24 15:50 56.32015 -4.75854 3501 ft 159 kts 293°
2026-04-24 15:50 56.32473 -4.77670 3492 ft 159 kts 292°
2026-04-24 15:50 56.32892 -4.79516 3522 ft 156 kts 289°
2026-04-24 15:50 56.33283 -4.81331 3523 ft 157 kts 291°
2026-04-24 15:51 56.33693 -4.83138 3550 ft 156 kts 291°
2026-04-24 15:51 56.34096 -4.84994 3511 ft 158 kts 288°
2026-04-24 15:51 56.34429 -4.86892 3516 ft 157 kts 285°
2026-04-24 15:51 56.34729 -4.88777 3531 ft 156 kts 284°
2026-04-24 15:52 56.34980 -4.90683 3530 ft 157 kts 281°
2026-04-24 15:52 56.35193 -4.92616 3529 ft 157 kts 279°
2026-04-24 15:52 56.35379 -4.94550 3534 ft 156 kts 279°
2026-04-24 15:52 56.35551 -4.96483 3544 ft 156 kts 277°
2026-04-24 15:53 56.35720 -4.98412 3540 ft 156 kts 278°
2026-04-24 15:53 56.35888 -5.00352 3555 ft 156 kts 277°
2026-04-24 15:53 56.36069 -5.02301 3553 ft 156 kts 278°
2026-04-24 15:53 56.36250 -5.04226 3557 ft 156 kts 277°
2026-04-24 15:54 56.36373 -5.06170 3567 ft 155 kts 273°
2026-04-24 15:54 56.36395 -5.08117 3561 ft 156 kts 267°
2026-04-24 15:54 56.36377 -5.10073 3562 ft 156 kts 272°
2026-04-24 15:54 56.36526 -5.12011 3542 ft 155 kts 281°
2026-04-24 15:55 56.36819 -5.13916 3407 ft 158 kts 286°
2026-04-24 15:55 56.37179 -5.15800 3283 ft 159 kts 289°
2026-04-24 15:55 56.37565 -5.17657 3151 ft 160 kts 289°
2026-04-24 15:55 56.37954 -5.19538 3033 ft 159 kts 288°
2026-04-24 15:56 56.38344 -5.21403 2922 ft 158 kts 291°
2026-04-24 15:56 56.38788 -5.23215 2806 ft 156 kts 294°
2026-04-24 15:56 56.39286 -5.24936 2681 ft 155 kts 297°
2026-04-24 15:56 56.39793 -5.26634 2501 ft 153 kts 297°
2026-04-24 15:57 56.40299 -5.28311 2311 ft 150 kts 298°
2026-04-24 15:57 56.40805 -5.29941 2148 ft 145 kts 298°
2026-04-24 15:57 56.41128 -5.30977 2034 ft 143 kts 298°
2026-04-24 15:57 56.41725 -5.33110 1803 ft 140 kts 290°
2026-04-24 15:58 56.41946 -5.34786 1665 ft 135 kts 277°
2026-04-24 15:58 56.42086 -5.36428 1571 ft 130 kts 279°
2026-04-24 15:58 56.42252 -5.38046 1437 ft 130 kts 281°
2026-04-24 15:58 56.42434 -5.39616 1299 ft 127 kts 282°
2026-04-24 15:59 56.42770 -5.40963 1244 ft 108 kts 316°
2026-04-24 15:59 56.43458 -5.41183 1084 ft 109 kts 14°
2026-04-24 15:59 56.44148 -5.40696 710 ft 104 kts 20°
2026-04-24 15:59 56.44769 -5.40309 437 ft 90 kts 12°
2026-04-24 16:00 56.45369 -5.40143 183 ft 84 kts
2026-04-24 16:00 56.45931 -5.40065 36 ft 75 kts
2026-04-24 16:00 56.46372 -5.39995 23 ft 51 kts
2026-04-24 16:00 56.46537 -5.39955 23 ft 10 kts
2026-04-24 16:01 56.46553 -5.39871 23 ft 6 kts 93°
2026-04-24 16:01 56.46552 -5.39807 23 ft 0 kts 91°